createdAt,value
2022-12-04T00:01:55.646Z,14.57
2022-12-04T00:06:59.034Z,14.10
2022-12-04T00:12:01.625Z,12.80
2022-12-04T00:17:04.071Z,12.97
2022-12-04T00:22:06.568Z,14.50
2022-12-04T00:27:08.983Z,13.83
2022-12-04T00:32:11.458Z,15.47
2022-12-04T00:37:13.918Z,12.53
2022-12-04T00:42:16.353Z,12.23
2022-12-04T00:47:18.992Z,13.00
2022-12-04T00:52:21.710Z,12.17
2022-12-04T00:57:24.187Z,13.40
2022-12-04T01:02:26.760Z,12.20
2022-12-04T01:07:29.361Z,12.63
2022-12-04T01:12:31.838Z,13.17
2022-12-04T01:17:34.291Z,11.63
2022-12-04T01:22:36.706Z,12.83
2022-12-04T01:27:39.124Z,13.50
2022-12-04T01:32:41.626Z,12.10
2022-12-04T01:37:44.033Z,12.27
2022-12-04T01:42:46.407Z,11.77
2022-12-04T01:47:49.283Z,11.83
2022-12-04T01:52:52.259Z,12.53
2022-12-04T01:57:54.777Z,11.97
2022-12-04T02:02:57.267Z,10.37
2022-12-04T02:08:05.654Z,12.80
2022-12-04T02:13:14.199Z,11.90
2022-12-04T02:18:34.136Z,11.57
2022-12-04T02:23:36.497Z,11.40
2022-12-04T02:29:30.003Z,12.13
2022-12-04T02:34:47.343Z,9.67
2022-12-04T02:40:01.847Z,12.27
2022-12-04T02:45:12.452Z,11.97
2022-12-04T02:50:18.483Z,12.00
2022-12-04T02:55:29.249Z,12.90
2022-12-04T03:00:33.187Z,13.00
2022-12-04T03:06:04.867Z,12.23
2022-12-04T03:11:07.390Z,12.63
2022-12-04T03:16:38.964Z,12.53
2022-12-04T03:21:50.428Z,13.93
2022-12-04T03:27:15.175Z,12.57
2022-12-04T03:32:23.294Z,13.73
2022-12-04T03:37:49.843Z,12.33
2022-12-04T03:43:06.382Z,13.47
2022-12-04T03:48:28.833Z,13.97
2022-12-04T03:53:44.386Z,14.37
2022-12-04T03:58:57.627Z,16.40
2022-12-04T04:04:04.221Z,13.67
2022-12-04T04:09:12.739Z,13.77
2022-12-04T04:14:40.528Z,15.33
2022-12-04T04:20:06.205Z,13.80
2022-12-04T04:25:16.439Z,13.93
2022-12-04T04:30:19.593Z,14.50
2022-12-04T04:35:57.810Z,16.53
2022-12-04T04:41:10.959Z,13.23
2022-12-04T04:46:20.211Z,12.20
2022-12-04T04:51:23.530Z,14.70
2022-12-04T04:56:26.167Z,15.63
2022-12-04T05:01:29.524Z,13.73
2022-12-04T05:06:32.221Z,15.07
2022-12-04T05:11:34.695Z,12.23
2022-12-04T05:16:38.714Z,12.20
2022-12-04T05:21:41.825Z,11.73
2022-12-04T05:26:44.326Z,12.30
2022-12-04T05:31:46.987Z,12.23
2022-12-04T05:36:49.728Z,11.13
2022-12-04T05:41:52.494Z,11.03
2022-12-04T05:46:54.958Z,12.73
2022-12-04T05:51:57.547Z,11.07
2022-12-04T05:57:00.194Z,12.80
2022-12-04T06:02:02.733Z,11.53
2022-12-04T06:07:05.331Z,11.93
2022-12-04T06:12:07.877Z,11.20
2022-12-04T06:17:10.254Z,9.53
2022-12-04T06:22:12.611Z,10.50
2022-12-04T06:27:30.450Z,13.13
2022-12-04T06:32:32.835Z,12.13
2022-12-04T06:37:35.510Z,15.00
2022-12-04T06:42:38.145Z,11.40
2022-12-04T06:47:40.608Z,11.13
2022-12-04T06:52:43.011Z,9.77
2022-12-04T06:57:45.390Z,11.33
2022-12-04T07:02:47.930Z,12.53
2022-12-04T07:07:50.822Z,12.23
2022-12-04T07:12:53.456Z,11.40
2022-12-04T07:17:56.057Z,12.87
2022-12-04T07:23:01.506Z,12.40
2022-12-04T07:28:08.139Z,13.93
2022-12-04T07:33:10.601Z,11.83
2022-12-04T07:38:12.959Z,12.97
2022-12-04T07:43:15.582Z,12.83
2022-12-04T07:48:18.253Z,13.43
2022-12-04T07:53:21.059Z,11.97
2022-12-04T07:58:23.626Z,14.30
2022-12-04T08:03:27.125Z,13.13
2022-12-04T08:08:30.102Z,11.67
2022-12-04T08:13:32.698Z,14.37
2022-12-04T08:18:35.517Z,16.47
2022-12-04T08:23:38.964Z,12.93
2022-12-04T08:28:42.045Z,16.20
2022-12-04T08:33:46.257Z,11.43
2022-12-04T08:38:49.435Z,11.50
2022-12-04T08:43:56.403Z,12.53
2022-12-04T08:48:59.139Z,16.70
2022-12-04T08:54:04.731Z,14.10
2022-12-04T08:59:07.272Z,12.00
2022-12-04T09:04:09.743Z,11.30
2022-12-04T09:09:12.878Z,13.83
2022-12-04T09:14:15.377Z,11.50
2022-12-04T09:19:17.847Z,12.23
2022-12-04T09:24:20.668Z,14.23
2022-12-04T09:29:23.273Z,12.53
2022-12-04T09:34:25.672Z,11.43
2022-12-04T09:39:28.106Z,11.33
2022-12-04T09:44:38.897Z,11.63
2022-12-04T09:49:49.313Z,12.83
2022-12-04T09:54:53.578Z,11.03
2022-12-04T09:59:56.505Z,11.77
2022-12-04T10:04:59.154Z,10.23
2022-12-04T10:10:28.030Z,12.77
2022-12-04T10:15:49.404Z,12.93
2022-12-04T10:21:06.012Z,12.87
2022-12-04T10:26:15.756Z,12.83
2022-12-04T10:31:18.497Z,12.70
2022-12-04T10:36:25.593Z,13.63
2022-12-04T10:41:52.096Z,13.83
2022-12-04T10:47:00.775Z,12.90
2022-12-04T10:52:04.001Z,13.23
2022-12-04T10:57:11.494Z,12.63
2022-12-04T11:02:35.433Z,15.20
2022-12-04T11:07:46.821Z,13.60
2022-12-04T11:13:00.235Z,14.37
2022-12-04T11:18:15.513Z,15.03
2022-12-04T11:23:18.333Z,14.13
2022-12-04T11:28:42.671Z,16.13
2022-12-04T11:33:49.402Z,13.13
2022-12-04T11:39:02.965Z,16.23
2022-12-04T11:44:24.559Z,16.73
2022-12-04T11:49:28.884Z,14.37
2022-12-04T11:54:46.370Z,15.43
2022-12-04T12:00:09.304Z,12.53
2022-12-04T12:05:33.424Z,11.43
2022-12-04T12:11:00.383Z,10.87
2022-12-04T12:16:17.901Z,11.57
2022-12-04T12:21:32.112Z,11.57
2022-12-04T12:26:54.893Z,12.07
2022-12-04T12:32:03.484Z,10.80
2022-12-04T12:37:11.435Z,14.03
2022-12-04T12:42:23.759Z,13.50
2022-12-04T12:47:32.090Z,13.90
2022-12-04T12:52:47.271Z,12.87
2022-12-04T12:58:14.233Z,14.17
2022-12-04T13:03:29.422Z,16.17
2022-12-04T13:08:59.727Z,14.60
2022-12-04T13:14:04.027Z,13.30
2022-12-04T13:19:21.945Z,13.50
2022-12-04T13:24:45.258Z,16.10
2022-12-04T13:30:14.440Z,12.60
2022-12-04T13:35:54.260Z,11.90
2022-12-04T13:41:03.290Z,10.37
2022-12-04T13:46:22.995Z,11.40
2022-12-04T13:51:35.477Z,14.63
2022-12-04T13:56:39.657Z,11.57
2022-12-04T14:01:46.768Z,9.90
2022-12-04T14:06:52.180Z,10.20
2022-12-04T14:12:06.209Z,12.70
2022-12-04T14:17:27.494Z,12.23
2022-12-04T14:22:36.184Z,20.17
2022-12-04T14:27:41.371Z,11.40
2022-12-04T14:32:44.821Z,10.57
2022-12-04T14:37:59.203Z,10.37
2022-12-04T14:43:02.050Z,12.03
2022-12-04T14:48:23.418Z,12.77
2022-12-04T14:53:48.228Z,17.33
2022-12-04T14:58:51.597Z,11.37
2022-12-04T15:04:03.600Z,13.30
2022-12-04T15:09:39.090Z,12.50
2022-12-04T15:14:43.423Z,13.47
2022-12-04T15:19:45.986Z,13.30
2022-12-04T15:24:48.505Z,11.87
2022-12-04T15:29:54.394Z,12.67
2022-12-04T15:35:05.831Z,13.77
2022-12-04T15:40:11.968Z,12.23
2022-12-04T15:45:14.361Z,11.97
2022-12-04T15:50:16.766Z,10.40
2022-12-04T15:55:21.780Z,14.17
2022-12-04T16:00:26.674Z,14.57
2022-12-04T16:05:37.320Z,15.13
2022-12-04T16:10:40.011Z,14.30
2022-12-04T16:15:46.312Z,16.63
2022-12-04T16:20:48.990Z,15.90
2022-12-04T16:25:53.644Z,14.27
2022-12-04T16:30:56.372Z,16.43
2022-12-04T16:35:58.882Z,16.13
2022-12-04T16:41:01.291Z,15.23
2022-12-04T16:46:03.773Z,15.10
2022-12-04T16:51:06.293Z,15.10
2022-12-04T16:56:09.375Z,15.07
2022-12-04T17:01:33.646Z,15.67
2022-12-04T17:06:36.343Z,16.33
2022-12-04T17:11:38.886Z,13.97
2022-12-04T17:16:43.674Z,15.57
2022-12-04T17:21:46.299Z,19.00
2022-12-04T17:26:48.720Z,18.90
2022-12-04T17:31:51.569Z,19.17
2022-12-04T17:36:56.309Z,13.23
2022-12-04T17:41:58.704Z,19.77
2022-12-04T17:47:01.176Z,16.87
2022-12-04T17:52:03.952Z,16.10
2022-12-04T17:57:06.476Z,17.53
2022-12-04T18:02:10.725Z,16.93
2022-12-04T18:07:13.131Z,16.67
2022-12-04T18:12:15.719Z,18.60
2022-12-04T18:17:20.823Z,14.20
2022-12-04T18:22:23.612Z,18.73
2022-12-04T18:27:26.041Z,14.07
2022-12-04T18:32:28.495Z,17.47
2022-12-04T18:37:30.949Z,18.00
2022-12-04T18:42:33.327Z,16.80
2022-12-04T18:47:36.676Z,20.20
2022-12-04T18:52:39.246Z,23.27
2022-12-04T18:57:41.923Z,21.10
2022-12-04T19:02:47.280Z,19.43
2022-12-04T19:07:50.617Z,17.67
2022-12-04T19:12:54.202Z,19.20
2022-12-04T19:17:56.593Z,15.63
2022-12-04T19:22:58.988Z,17.13
2022-12-04T19:28:02.911Z,16.77
2022-12-04T19:33:05.561Z,14.50
2022-12-04T19:38:08.059Z,12.53
2022-12-04T19:43:10.470Z,13.70
2022-12-04T19:48:12.928Z,17.93
2022-12-04T19:53:15.580Z,18.10
2022-12-04T19:58:18.534Z,17.53
2022-12-04T20:03:21.342Z,16.57
2022-12-04T20:08:24.068Z,17.10
2022-12-04T20:13:26.507Z,16.83
2022-12-04T20:18:29.161Z,18.30
2022-12-04T20:23:31.642Z,13.83
2022-12-04T20:28:34.157Z,14.57
2022-12-04T20:33:36.601Z,22.60
2022-12-04T20:38:39.825Z,15.80
2022-12-04T20:43:46.787Z,17.37
2022-12-04T20:48:51.033Z,15.00
2022-12-04T20:53:55.198Z,18.83
2022-12-04T20:59:00.059Z,16.57
2022-12-04T21:04:04.160Z,16.63
2022-12-04T21:09:16.010Z,14.80
2022-12-04T21:14:39.946Z,17.30
2022-12-04T21:19:42.656Z,14.77
2022-12-04T21:24:45.047Z,16.87
2022-12-04T21:29:47.883Z,16.37
2022-12-04T21:34:52.171Z,15.40
2022-12-04T21:39:54.873Z,17.43
2022-12-04T21:44:58.642Z,18.43
2022-12-04T21:50:01.199Z,19.13
2022-12-04T21:55:05.161Z,17.93
2022-12-04T22:00:08.438Z,13.67
2022-12-04T22:05:10.865Z,13.73
2022-12-04T22:10:13.567Z,12.00
2022-12-04T22:15:16.011Z,10.77
2022-12-04T22:20:18.603Z,9.60
2022-12-04T22:25:21.474Z,11.50
2022-12-04T22:30:25.091Z,10.03
2022-12-04T22:35:27.710Z,11.67
2022-12-04T22:40:30.300Z,11.17
2022-12-04T22:45:32.702Z,11.50
2022-12-04T22:50:35.090Z,10.73
2022-12-04T22:55:37.448Z,10.83
2022-12-04T23:00:40.018Z,10.90
2022-12-04T23:05:42.484Z,11.27
2022-12-04T23:10:44.863Z,13.20
2022-12-04T23:15:49.845Z,13.20
2022-12-04T23:20:53.086Z,12.70
2022-12-04T23:25:55.540Z,11.03
2022-12-04T23:30:58.854Z,12.43
2022-12-04T23:36:03.174Z,12.33
2022-12-04T23:41:07.476Z,10.47
2022-12-04T23:46:11.870Z,11.47
2022-12-04T23:51:16.828Z,11.43
2022-12-04T23:56:22.513Z,11.97
